createdAt,value
2018-08-04T00:01:14.984Z,23.80
2018-08-04T00:03:43.520Z,23.70
2018-08-04T00:06:12.049Z,23.70
2018-08-04T00:08:40.574Z,23.60
2018-08-04T00:11:09.076Z,23.50
2018-08-04T00:13:37.629Z,23.50
2018-08-04T00:16:06.242Z,23.40
2018-08-04T00:18:34.812Z,23.40
2018-08-04T00:21:03.387Z,23.30
2018-08-04T00:23:31.902Z,23.30
2018-08-04T00:26:00.421Z,23.30
2018-08-04T00:28:28.999Z,23.30
2018-08-04T00:30:57.544Z,23.30
2018-08-04T00:33:26.070Z,23.10
2018-08-04T00:35:54.609Z,23.10
2018-08-04T00:38:23.123Z,23.10
2018-08-04T00:40:51.647Z,23.10
2018-08-04T00:43:20.216Z,23.10
2018-08-04T00:45:48.780Z,23.00
2018-08-04T00:48:17.310Z,23.00
2018-08-04T00:50:45.828Z,23.00
2018-08-04T00:53:14.337Z,23.00
2018-08-04T00:55:42.887Z,23.00
2018-08-04T00:58:11.417Z,23.00
2018-08-04T01:00:39.976Z,22.90
2018-08-04T01:03:08.538Z,22.80
2018-08-04T01:05:37.042Z,22.80
2018-08-04T01:08:05.574Z,22.80
2018-08-04T01:10:34.160Z,22.80
2018-08-04T01:13:02.680Z,22.80
2018-08-04T01:15:31.228Z,22.80
2018-08-04T01:17:59.817Z,22.70
2018-08-04T01:20:28.368Z,22.60
2018-08-04T01:22:56.887Z,22.60
2018-08-04T01:25:25.400Z,22.60
2018-08-04T01:27:53.954Z,22.70
2018-08-04T01:30:22.500Z,22.70
2018-08-04T01:32:51.035Z,22.70
2018-08-04T01:35:19.551Z,22.70
2018-08-04T01:37:48.056Z,22.60
2018-08-04T01:40:16.627Z,22.60
2018-08-04T01:42:45.195Z,22.60
2018-08-04T01:45:13.721Z,22.60
2018-08-04T01:47:42.248Z,22.50
2018-08-04T01:50:10.807Z,22.50
2018-08-04T01:52:39.343Z,22.40
2018-08-04T01:55:07.864Z,22.40
2018-08-04T01:57:36.402Z,22.40
2018-08-04T02:00:05.094Z,22.30
2018-08-04T02:02:33.627Z,22.20
2018-08-04T02:05:02.152Z,22.20
2018-08-04T02:07:30.686Z,22.10
2018-08-04T02:09:59.270Z,22.00
2018-08-04T02:12:27.996Z,22.00
2018-08-04T02:14:56.538Z,21.90
2018-08-04T02:17:25.064Z,21.80
2018-08-04T02:19:53.610Z,21.80
2018-08-04T02:22:22.147Z,21.80
2018-08-04T02:24:50.666Z,21.70
2018-08-04T02:27:19.248Z,21.70
2018-08-04T02:29:47.830Z,21.60
2018-08-04T02:32:16.354Z,21.60
2018-08-04T02:34:44.911Z,21.60
2018-08-04T02:37:13.415Z,21.50
2018-08-04T02:39:41.948Z,21.60
2018-08-04T02:42:10.516Z,21.60
2018-08-04T02:44:39.029Z,21.60
2018-08-04T02:47:07.518Z,21.60
2018-08-04T02:49:36.107Z,21.60
2018-08-04T02:52:04.764Z,21.50
2018-08-04T02:54:33.334Z,21.50
2018-08-04T02:57:01.898Z,21.40
2018-08-04T02:59:30.473Z,21.30
2018-08-04T03:01:58.972Z,21.30
2018-08-04T03:04:27.475Z,21.20
2018-08-04T03:06:56.021Z,21.20
2018-08-04T03:09:24.594Z,21.10
2018-08-04T03:11:53.116Z,21.10
2018-08-04T03:14:21.712Z,21.10
2018-08-04T03:16:50.246Z,21.00
2018-08-04T03:19:18.884Z,21.00
2018-08-04T03:21:47.401Z,21.10
2018-08-04T03:24:15.935Z,21.00
2018-08-04T03:26:44.452Z,20.90
2018-08-04T03:29:13.009Z,20.80
2018-08-04T03:31:41.526Z,20.80
2018-08-04T03:34:10.059Z,20.80
2018-08-04T03:36:38.595Z,20.80
2018-08-04T03:39:09.288Z,20.90
2018-08-04T03:41:37.847Z,20.90
2018-08-04T03:44:06.725Z,20.90
2018-08-04T03:46:35.535Z,20.80
2018-08-04T03:49:04.122Z,20.80
2018-08-04T03:51:32.647Z,20.80
2018-08-04T03:54:01.200Z,20.80
2018-08-04T03:56:29.727Z,20.70
2018-08-04T03:58:58.260Z,20.70
2018-08-04T04:01:26.793Z,20.70
2018-08-04T04:03:55.331Z,20.70
2018-08-04T04:06:23.868Z,20.70
2018-08-04T04:08:52.376Z,20.70
2018-08-04T04:11:20.864Z,20.70
2018-08-04T04:13:49.384Z,20.60
2018-08-04T04:16:17.939Z,20.70
2018-08-04T04:18:46.482Z,20.70
2018-08-04T04:21:15.015Z,20.60
2018-08-04T04:23:43.541Z,20.60
2018-08-04T04:26:12.082Z,20.70
2018-08-04T04:28:40.665Z,20.70
2018-08-04T04:31:09.246Z,20.70
2018-08-04T04:33:37.767Z,20.70
2018-08-04T04:36:06.264Z,20.80
2018-08-04T04:38:34.775Z,20.80
2018-08-04T04:41:03.317Z,20.90
2018-08-04T04:43:31.861Z,20.90
2018-08-04T04:46:00.434Z,21.00
2018-08-04T04:48:29.084Z,21.00
2018-08-04T04:50:57.612Z,21.00
2018-08-04T04:53:26.129Z,21.10
2018-08-04T04:55:54.685Z,21.20
2018-08-04T04:58:23.227Z,21.20
2018-08-04T05:00:51.777Z,21.20
2018-08-04T05:03:20.279Z,21.30
2018-08-04T05:05:48.877Z,21.40
2018-08-04T05:08:17.394Z,21.50
2018-08-04T05:10:45.906Z,21.60
2018-08-04T05:13:14.480Z,21.70
2018-08-04T05:15:42.938Z,21.70
2018-08-04T05:18:11.460Z,21.80
2018-08-04T05:20:39.963Z,21.90
2018-08-04T05:23:08.508Z,22.00
2018-08-04T05:25:37.086Z,22.00
2018-08-04T05:28:05.630Z,22.00
2018-08-04T05:30:34.145Z,22.20
2018-08-04T05:33:02.725Z,22.30
2018-08-04T05:35:31.256Z,22.40
2018-08-04T05:37:59.772Z,22.50
2018-08-04T05:40:28.287Z,22.60
2018-08-04T05:42:56.791Z,22.70
2018-08-04T05:45:25.362Z,22.80
2018-08-04T05:47:53.865Z,22.80
2018-08-04T05:50:22.436Z,22.90
2018-08-04T05:52:50.939Z,23.00
2018-08-04T05:55:19.518Z,23.20
2018-08-04T05:57:48.032Z,23.30
2018-08-04T06:00:16.614Z,23.50
2018-08-04T06:02:45.155Z,23.60
2018-08-04T06:05:13.704Z,23.90
2018-08-04T06:07:42.202Z,24.00
2018-08-04T06:10:10.719Z,24.20
2018-08-04T06:12:39.239Z,24.40
2018-08-04T06:15:07.798Z,24.60
2018-08-04T06:17:36.290Z,24.70
2018-08-04T06:20:05.512Z,24.80
2018-08-04T06:22:34.014Z,25.00
2018-08-04T06:25:02.518Z,25.20
2018-08-04T06:27:31.050Z,25.30
2018-08-04T06:29:59.567Z,25.50
2018-08-04T06:32:28.121Z,25.60
2018-08-04T06:34:56.630Z,25.80
2018-08-04T06:37:25.155Z,25.90
2018-08-04T06:39:53.695Z,26.10
2018-08-04T06:42:22.206Z,26.20
2018-08-04T06:44:50.711Z,26.40
2018-08-04T06:47:19.223Z,26.50
2018-08-04T06:49:47.788Z,26.60
2018-08-04T06:52:16.294Z,26.80
2018-08-04T06:54:44.888Z,26.80
2018-08-04T06:57:13.438Z,27.00
2018-08-04T06:59:41.979Z,27.10
2018-08-04T07:02:10.497Z,27.20
2018-08-04T07:04:39.019Z,27.40
2018-08-04T07:07:08.072Z,27.50
2018-08-04T07:09:36.625Z,27.60
2018-08-04T07:12:05.176Z,27.70
2018-08-04T07:14:33.712Z,27.80
2018-08-04T07:17:02.246Z,28.00
2018-08-04T07:19:30.777Z,28.10
2018-08-04T07:21:59.301Z,28.30
2018-08-04T07:24:27.804Z,28.40
2018-08-04T07:26:56.420Z,28.60
2018-08-04T07:29:24.943Z,28.70
2018-08-04T07:31:53.444Z,28.90
2018-08-04T07:34:21.987Z,29.00
2018-08-04T07:36:50.541Z,29.10
2018-08-04T07:39:19.078Z,29.20
2018-08-04T07:41:47.607Z,29.30
2018-08-04T07:44:16.121Z,29.40
2018-08-04T07:46:44.644Z,29.50
2018-08-04T07:49:13.199Z,29.70
2018-08-04T07:51:41.704Z,29.60
2018-08-04T07:54:10.246Z,29.70
2018-08-04T07:56:38.783Z,29.80
2018-08-04T07:59:07.345Z,29.90
2018-08-04T08:01:35.834Z,30.10
2018-08-04T08:04:04.366Z,30.10
2018-08-04T08:06:33.925Z,30.20
2018-08-04T08:09:02.639Z,30.40
2018-08-04T08:11:31.175Z,30.50
2018-08-04T08:13:59.733Z,30.60
2018-08-04T08:16:28.228Z,30.70
2018-08-04T08:18:56.748Z,30.70
2018-08-04T08:21:25.234Z,30.80
2018-08-04T08:23:53.816Z,30.80
2018-08-04T08:26:22.395Z,30.90
2018-08-04T08:28:51.119Z,30.90
2018-08-04T08:31:19.721Z,31.00
2018-08-04T08:33:48.233Z,31.00
2018-08-04T08:36:16.813Z,31.10
2018-08-04T08:38:45.316Z,31.20
2018-08-04T08:41:13.866Z,31.30
2018-08-04T08:43:42.471Z,31.30
2018-08-04T08:46:10.988Z,31.20
2018-08-04T08:48:39.512Z,31.20
2018-08-04T08:51:08.053Z,31.30
2018-08-04T08:53:36.774Z,31.30
2018-08-04T08:56:05.989Z,31.30
2018-08-04T08:58:34.542Z,31.40
2018-08-04T09:01:03.377Z,31.60
2018-08-04T09:03:32.209Z,31.90
2018-08-04T09:06:00.857Z,32.00
2018-08-04T09:08:30.496Z,32.10
2018-08-04T09:10:59.034Z,32.20
2018-08-04T09:13:27.601Z,32.40
2018-08-04T09:15:56.121Z,32.10
2018-08-04T09:18:24.702Z,32.10
2018-08-04T09:20:53.280Z,32.10
2018-08-04T09:23:21.813Z,32.00
2018-08-04T09:25:50.375Z,32.00
2018-08-04T09:28:18.912Z,31.90
2018-08-04T09:30:47.463Z,31.90
2018-08-04T09:33:15.979Z,31.90
2018-08-04T09:35:44.654Z,32.10
2018-08-04T09:38:13.252Z,32.10
2018-08-04T09:40:41.795Z,32.00
2018-08-04T09:43:10.361Z,32.20
2018-08-04T09:45:38.854Z,32.30
2018-08-04T09:48:07.407Z,32.50
2018-08-04T09:50:36.044Z,32.70
2018-08-04T09:53:04.665Z,33.00
2018-08-04T09:55:33.163Z,33.30
2018-08-04T09:58:01.697Z,33.60
2018-08-04T10:00:35.364Z,33.70
2018-08-04T10:03:03.896Z,33.50
2018-08-04T10:05:32.743Z,33.70
2018-08-04T10:08:01.283Z,33.80
2018-08-04T10:10:29.804Z,33.70
2018-08-04T10:12:58.497Z,33.80
2018-08-04T10:15:27.100Z,33.90
2018-08-04T10:17:55.619Z,33.70
2018-08-04T10:20:24.240Z,33.70
2018-08-04T10:22:52.738Z,33.60
2018-08-04T10:25:21.304Z,33.60
2018-08-04T10:27:49.827Z,33.50
2018-08-04T10:30:18.456Z,33.40
2018-08-04T10:32:47.042Z,33.10
2018-08-04T10:35:15.618Z,32.90
2018-08-04T10:37:44.160Z,32.70
2018-08-04T10:40:12.702Z,32.60
2018-08-04T10:42:41.262Z,32.40
2018-08-04T10:45:09.808Z,32.40
2018-08-04T10:47:38.372Z,32.20
2018-08-04T10:50:07.185Z,32.30
2018-08-04T10:52:35.737Z,32.40
2018-08-04T10:55:04.301Z,32.50
2018-08-04T10:57:32.815Z,32.80
2018-08-04T11:00:01.328Z,33.00
2018-08-04T11:02:30.252Z,33.10
2018-08-04T11:04:58.845Z,33.30
2018-08-04T11:07:27.384Z,33.20
2018-08-04T11:09:55.930Z,33.20
2018-08-04T11:12:24.505Z,33.40
2018-08-04T11:14:53.165Z,33.70
2018-08-04T11:17:21.713Z,33.90
2018-08-04T11:19:50.261Z,34.10
2018-08-04T11:22:19.124Z,34.30
2018-08-04T11:24:47.660Z,34.30
2018-08-04T11:27:16.249Z,34.10
2018-08-04T11:29:44.789Z,33.90
2018-08-04T11:32:13.418Z,33.70
2018-08-04T11:34:41.978Z,33.40
2018-08-04T11:37:10.513Z,33.30
2018-08-04T11:39:39.039Z,33.00
2018-08-04T11:42:09.842Z,32.80
2018-08-04T11:44:38.429Z,32.70
2018-08-04T11:47:06.988Z,32.50
2018-08-04T11:49:35.590Z,32.40
2018-08-04T11:52:04.200Z,32.40
2018-08-04T11:54:32.852Z,32.50
2018-08-04T11:57:01.369Z,32.40
2018-08-04T11:59:29.922Z,32.30
2018-08-04T12:01:58.587Z,32.40
2018-08-04T12:04:27.124Z,32.60
2018-08-04T12:06:55.647Z,32.90
2018-08-04T12:09:24.255Z,33.20
2018-08-04T12:11:52.820Z,33.50
2018-08-04T12:14:21.327Z,33.70
2018-08-04T12:16:49.865Z,33.90
2018-08-04T12:19:18.368Z,34.00
2018-08-04T12:21:46.878Z,33.90
2018-08-04T12:24:15.401Z,34.00
2018-08-04T12:26:43.936Z,33.70
2018-08-04T12:29:12.451Z,33.50
2018-08-04T12:31:40.976Z,33.30
2018-08-04T12:34:09.534Z,33.10
2018-08-04T12:36:38.143Z,33.00
2018-08-04T12:39:08.860Z,33.00
2018-08-04T12:41:37.433Z,32.90
2018-08-04T12:44:07.140Z,33.00
2018-08-04T12:46:35.723Z,33.30
2018-08-04T12:49:04.319Z,33.40
2018-08-04T12:51:32.891Z,33.40
2018-08-04T12:54:01.454Z,33.30
2018-08-04T12:56:29.995Z,33.30
2018-08-04T12:58:58.517Z,33.30
2018-08-04T13:01:27.044Z,33.30
2018-08-04T13:03:55.605Z,33.30
2018-08-04T13:06:24.857Z,33.20
2018-08-04T13:08:53.463Z,33.10
2018-08-04T13:11:21.985Z,33.00
2018-08-04T13:13:50.583Z,32.80
2018-08-04T13:16:19.078Z,32.70
2018-08-04T13:18:47.712Z,32.50
2018-08-04T13:21:17.981Z,32.50
2018-08-04T13:23:46.508Z,32.40
2018-08-04T13:26:15.031Z,32.20
2018-08-04T13:28:43.589Z,32.10
2018-08-04T13:31:12.107Z,32.00
2018-08-04T13:33:40.639Z,31.90
2018-08-04T13:36:09.173Z,31.70
2018-08-04T13:38:37.697Z,31.60
2018-08-04T13:41:06.217Z,31.60
2018-08-04T13:43:34.770Z,31.60
2018-08-04T13:46:03.399Z,31.50
2018-08-04T13:48:31.944Z,31.50
2018-08-04T13:51:00.608Z,31.60
2018-08-04T13:53:29.116Z,31.60
2018-08-04T13:55:57.669Z,31.60
2018-08-04T13:58:26.188Z,31.70
2018-08-04T14:00:54.787Z,31.70
2018-08-04T14:03:23.302Z,31.90
2018-08-04T14:05:52.260Z,32.10
2018-08-04T14:08:20.763Z,32.20
2018-08-04T14:10:49.304Z,32.10
2018-08-04T14:13:17.878Z,32.10
2018-08-04T14:15:46.792Z,32.10
2018-08-04T14:18:15.341Z,32.10
2018-08-04T14:20:43.891Z,32.20
2018-08-04T14:23:12.449Z,32.40
2018-08-04T14:25:40.987Z,32.30
2018-08-04T14:28:09.511Z,32.30
2018-08-04T14:30:38.072Z,32.30
2018-08-04T14:33:06.578Z,32.30
2018-08-04T14:35:35.161Z,32.30
2018-08-04T14:38:03.705Z,32.40
2018-08-04T14:40:32.429Z,32.50
2018-08-04T14:43:01.041Z,32.50
2018-08-04T14:45:29.595Z,32.40
2018-08-04T14:47:58.261Z,32.40
2018-08-04T14:50:26.826Z,32.30
2018-08-04T14:52:55.416Z,32.20
2018-08-04T14:55:24.026Z,32.20
2018-08-04T14:57:52.633Z,32.20
2018-08-04T15:00:21.179Z,32.20
2018-08-04T15:02:49.699Z,32.20
2018-08-04T15:05:18.284Z,32.30
2018-08-04T15:07:46.818Z,32.50
2018-08-04T15:10:15.401Z,32.70
2018-08-04T15:12:43.940Z,32.90
2018-08-04T15:15:12.454Z,33.10
2018-08-04T15:17:41.087Z,33.20
2018-08-04T15:20:09.661Z,33.20
2018-08-04T15:22:38.241Z,33.00
2018-08-04T15:25:06.911Z,32.60
2018-08-04T15:27:35.585Z,32.20
2018-08-04T15:30:04.361Z,32.00
2018-08-04T15:32:32.913Z,31.70
2018-08-04T15:35:01.629Z,31.50
2018-08-04T15:37:30.431Z,31.20
2018-08-04T15:39:58.902Z,31.00
2018-08-04T15:42:27.419Z,30.80
2018-08-04T15:44:55.984Z,30.70
2018-08-04T15:47:24.468Z,30.50
2018-08-04T15:49:52.963Z,30.40
2018-08-04T15:52:21.507Z,30.20
2018-08-04T15:54:50.447Z,30.10
2018-08-04T15:57:18.965Z,29.90
2018-08-04T15:59:47.453Z,29.80
2018-08-04T16:02:15.978Z,29.60
2018-08-04T16:04:44.490Z,29.50
2018-08-04T16:07:13.018Z,29.50
2018-08-04T16:09:41.519Z,29.40
2018-08-04T16:12:10.042Z,29.40
2018-08-04T16:14:38.586Z,29.50
2018-08-04T16:17:07.590Z,29.50
2018-08-04T16:19:36.126Z,29.60
2018-08-04T16:22:04.654Z,29.60
2018-08-04T16:24:33.185Z,29.60
2018-08-04T16:27:01.715Z,29.40
2018-08-04T16:29:30.206Z,29.40
2018-08-04T16:31:58.712Z,29.30
2018-08-04T16:34:27.232Z,29.40
2018-08-04T16:36:55.858Z,29.50
2018-08-04T16:39:24.374Z,29.50
2018-08-04T16:41:52.903Z,29.70
2018-08-04T16:44:21.440Z,29.80
2018-08-04T16:46:50.022Z,30.00
2018-08-04T16:49:18.638Z,29.90
2018-08-04T16:51:47.171Z,30.00
2018-08-04T16:54:15.735Z,29.90
2018-08-04T16:56:44.276Z,29.80
2018-08-04T16:59:12.909Z,29.70
2018-08-04T17:01:41.436Z,29.70
2018-08-04T17:04:11.999Z,29.60
2018-08-04T17:06:40.529Z,29.50
2018-08-04T17:09:11.245Z,29.40
2018-08-04T17:11:39.860Z,29.30
2018-08-04T17:14:08.830Z,29.20
2018-08-04T17:16:37.371Z,29.10
2018-08-04T17:19:06.076Z,29.00
2018-08-04T17:21:34.607Z,29.10
2018-08-04T17:24:03.150Z,29.10
2018-08-04T17:26:31.663Z,29.00
2018-08-04T17:29:00.171Z,29.00
2018-08-04T17:31:28.706Z,29.00
2018-08-04T17:33:57.226Z,28.70
2018-08-04T17:36:25.762Z,28.60
2018-08-04T17:38:54.329Z,28.50
2018-08-04T17:41:22.843Z,28.40
2018-08-04T17:43:51.622Z,28.30
2018-08-04T17:46:20.210Z,28.20
2018-08-04T17:48:48.722Z,28.10
2018-08-04T17:51:17.319Z,28.10
2018-08-04T17:53:45.920Z,28.10
2018-08-04T17:56:14.453Z,28.00
2018-08-04T17:58:42.952Z,28.00
2018-08-04T18:01:11.626Z,27.90
2018-08-04T18:03:40.157Z,27.90
2018-08-04T18:06:08.716Z,27.80
2018-08-04T18:08:37.213Z,27.60
2018-08-04T18:11:05.807Z,27.40
2018-08-04T18:13:34.334Z,27.30
2018-08-04T18:16:02.870Z,27.20
2018-08-04T18:18:31.371Z,27.20
2018-08-04T18:20:59.948Z,27.20
2018-08-04T18:23:28.534Z,27.10
2018-08-04T18:25:57.043Z,27.10
2018-08-04T18:28:25.671Z,27.10
2018-08-04T18:30:54.255Z,27.10
2018-08-04T18:33:22.789Z,27.00
2018-08-04T18:35:51.359Z,27.00
2018-08-04T18:38:19.978Z,27.00
2018-08-04T18:40:48.614Z,26.90
2018-08-04T18:43:17.171Z,26.80
2018-08-04T18:45:45.760Z,26.70
2018-08-04T18:48:14.281Z,26.60
2018-08-04T18:50:42.915Z,26.50
2018-08-04T18:53:11.536Z,26.40
2018-08-04T18:55:40.067Z,26.30
2018-08-04T18:58:08.876Z,26.20
2018-08-04T19:00:37.683Z,26.10
2018-08-04T19:03:06.354Z,26.00
2018-08-04T19:05:34.980Z,26.00
2018-08-04T19:08:03.538Z,25.90
2018-08-04T19:10:32.057Z,25.90
2018-08-04T19:13:00.593Z,25.80
2018-08-04T19:15:29.122Z,25.70
2018-08-04T19:17:57.646Z,25.70
2018-08-04T19:20:26.163Z,25.60
2018-08-04T19:22:54.695Z,25.60
2018-08-04T19:25:23.225Z,25.50
2018-08-04T19:27:51.841Z,25.40
2018-08-04T19:30:20.353Z,25.30
2018-08-04T19:32:48.859Z,25.30
2018-08-04T19:35:17.428Z,25.20
2018-08-04T19:37:45.991Z,25.10
2018-08-04T19:40:14.544Z,25.00
2018-08-04T19:42:43.080Z,24.90
2018-08-04T19:45:11.622Z,24.80
2018-08-04T19:47:40.141Z,24.60
2018-08-04T19:50:08.722Z,24.60
2018-08-04T19:52:37.341Z,24.40
2018-08-04T19:55:06.190Z,24.40
2018-08-04T19:57:34.747Z,24.30
2018-08-04T20:00:03.390Z,24.30
2018-08-04T20:02:31.975Z,24.20
2018-08-04T20:05:00.515Z,24.20
2018-08-04T20:07:29.030Z,24.10
2018-08-04T20:09:57.549Z,24.00
2018-08-04T20:12:26.111Z,23.90
2018-08-04T20:14:54.686Z,23.80
2018-08-04T20:17:23.240Z,23.80
2018-08-04T20:19:51.865Z,23.70
2018-08-04T20:22:20.381Z,23.60
2018-08-04T20:24:48.957Z,23.60
2018-08-04T20:27:17.513Z,23.50
2018-08-04T20:29:46.109Z,23.40
2018-08-04T20:32:14.626Z,23.30
2018-08-04T20:34:43.144Z,23.30
2018-08-04T20:37:11.704Z,23.20
2018-08-04T20:39:40.305Z,23.20
2018-08-04T20:42:08.863Z,23.20
2018-08-04T20:44:37.479Z,23.20
2018-08-04T20:47:06.064Z,23.10
2018-08-04T20:49:34.621Z,23.10
2018-08-04T20:52:03.178Z,23.10
2018-08-04T20:54:31.760Z,23.00
2018-08-04T20:57:00.350Z,22.90
2018-08-04T20:59:28.983Z,22.80
2018-08-04T21:02:00.614Z,22.70
2018-08-04T21:04:30.438Z,22.70
2018-08-04T21:06:59.089Z,22.60
2018-08-04T21:09:27.653Z,22.60
2018-08-04T21:11:56.743Z,22.60
2018-08-04T21:14:26.441Z,22.50
2018-08-04T21:16:55.929Z,22.50
2018-08-04T21:19:25.051Z,22.50
2018-08-04T21:21:53.649Z,22.40
2018-08-04T21:24:23.410Z,22.30
2018-08-04T21:26:52.895Z,22.30
2018-08-04T21:29:21.886Z,22.20
2018-08-04T21:31:50.446Z,22.20
2018-08-04T21:34:19.227Z,22.10
2018-08-04T21:36:47.801Z,22.10
2018-08-04T21:39:18.460Z,22.10
2018-08-04T21:41:47.461Z,22.10
2018-08-04T21:44:16.145Z,22.00
2018-08-04T21:46:46.925Z,22.00
2018-08-04T21:49:15.526Z,22.10
2018-08-04T21:51:48.220Z,22.00
2018-08-04T21:54:19.921Z,22.00
2018-08-04T21:56:46.588Z,22.00
2018-08-04T21:59:15.143Z,22.00
2018-08-04T22:01:49.110Z,22.10
2018-08-04T22:04:17.618Z,22.10
2018-08-04T22:07:58.168Z,22.00
2018-08-04T22:10:26.761Z,22.00
2018-08-04T22:12:55.427Z,22.00
2018-08-04T22:15:23.940Z,22.00
2018-08-04T22:17:52.473Z,22.10
2018-08-04T22:20:22.000Z,22.10
2018-08-04T22:22:50.590Z,22.10
2018-08-04T22:25:20.477Z,22.00
2018-08-04T22:27:49.005Z,22.00
2018-08-04T22:30:18.875Z,22.00
2018-08-04T22:32:47.822Z,22.00
2018-08-04T22:35:16.445Z,22.00
2018-08-04T22:37:45.118Z,22.00
2018-08-04T22:40:14.680Z,22.00
2018-08-04T22:42:43.621Z,22.00
2018-08-04T22:46:21.910Z,22.10
2018-08-04T22:48:51.684Z,22.10
2018-08-04T22:51:23.324Z,22.00
2018-08-04T22:53:51.863Z,22.00
2018-08-04T22:56:20.440Z,21.90
2018-08-04T22:58:48.954Z,21.90
2018-08-04T23:01:17.478Z,21.80
2018-08-04T23:06:14.584Z,21.80
2018-08-04T23:08:43.134Z,21.80
2018-08-04T23:11:11.683Z,21.80
2018-08-04T23:13:40.166Z,21.80
2018-08-04T23:16:08.697Z,21.80
2018-08-04T23:18:37.216Z,21.70
2018-08-04T23:21:06.116Z,21.50
2018-08-04T23:23:34.680Z,21.40
2018-08-04T23:26:03.235Z,21.30
2018-08-04T23:28:31.780Z,21.30
2018-08-04T23:31:00.331Z,21.30
2018-08-04T23:33:28.843Z,21.20
2018-08-04T23:35:57.355Z,21.20
2018-08-04T23:38:25.905Z,21.20
2018-08-04T23:40:54.419Z,21.20
2018-08-04T23:43:22.928Z,21.20
2018-08-04T23:45:51.435Z,21.20
2018-08-04T23:48:19.981Z,21.20
2018-08-04T23:50:48.513Z,21.10
2018-08-04T23:53:17.072Z,21.20
2018-08-04T23:55:45.608Z,21.20
2018-08-04T23:58:14.171Z,21.20
